Weather History for Canby, MN

Change the Weather History Date:

Sunday, August 25, 2013

  Actual Average (KMML) Record (KMML)
Temperature  
Mean Temperature 85 °F -  
Max Temperature 93 °F 80 °F 96 °F (1949)
Min Temperature 77 °F 59 °F 41 °F (1958)
Cooling Degree Days 20    
Growing Degree Days 35 (Base 50)    
Moisture  
Dew Point 71 °F    
Average Humidity 65    
Maximum Humidity 76    
Minimum Humidity 49    
Precipitation  
Precipitation 0.00 in - - ()
Sea Level Pressure  
Sea Level Pressure 29.93 in    
Wind  
Wind Speed 14 mph (SSW)    
Max Wind Speed 20 mph    
Max Gust Speed 31 mph    
Visibility 10 miles    
Events      
Averages and records for this station are not official NWS values.
T = Trace of Precipitation, MM = Missing Value Source: NWS Daily Summary

Daily Weather History Graph

Daily Weather History Graph

Search for Another Location

Airport:

Trip Planner

Search our weather history database for the weather conditions in past years. The results will help you decide how hot, cold, wet, or windy it might be!

Date:

Astronomy

Aug. 25, 2013 Rise Set
Actual Time 6:39 AM CDT 8:13 PM CDT
Civil Twilight 6:08 AM CDT 8:44 PM CDT
Nautical Twilight 5:31 AM CDT 9:21 PM CDT
Astronomical Twilight 4:51 AM CDT 10:01 PM CDT
Moon 10:29 PM CDT (8/25) 11:57 AM CDT (8/25)
Length of Visible Light 14h 35m
Length of Day
13h 34m
Waning Gibbous, 75% of the Moon is Illuminated
Aug 25
Waning Gibbous
Aug 28
Last Quarter
Sep 5
New
Sep 12
First Quarter
Sep 19
Full

Hourly Weather History & Observations

Time (CDT) Temp. Heat Index Dew Point Humidity Pressure Visibility Wind Dir Wind Speed Gust Speed Precip Events Conditions
12:14 AM 81.5 °F 85.9 °F 71.6 °F 72% 29.90 in 10.0 mi SSW 15.0 mph 24.2 mph N/A   Clear
12:34 AM 81.5 °F 85.7 °F 71.4 °F 71% 29.90 in 10.0 mi SSW 15.0 mph 25.3 mph N/A   Clear
12:54 AM 81.5 °F 85.5 °F 71.1 °F 70% 29.90 in 10.0 mi SSW 15.0 mph 25.3 mph N/A   Clear
1:14 AM 81.1 °F 85.0 °F 71.1 °F 71% 29.91 in 10.0 mi SSW 17.3 mph 25.3 mph N/A   Clear
1:33 AM 80.8 °F 84.6 °F 70.9 °F 72% 29.91 in 10.0 mi SSW 17.3 mph 25.3 mph N/A   Clear
1:54 AM 80.6 °F 84.2 °F 70.7 °F 72% 29.91 in 10.0 mi SSW 12.7 mph 26.5 mph N/A   Clear
2:14 AM 80.2 °F 83.6 °F 70.3 °F 72% 29.91 in 10.0 mi SSW 18.4 mph 27.6 mph N/A   Clear
2:34 AM 79.9 °F - 70.2 °F 72% 29.91 in 10.0 mi SSW 18.4 mph 25.3 mph N/A   Clear
2:54 AM 79.9 °F - 69.8 °F 71% 29.91 in 10.0 mi SSW 15.0 mph 24.2 mph N/A   Clear
3:14 AM 79.9 °F - 69.8 °F 71% 29.91 in 10.0 mi SSW 19.6 mph 28.8 mph N/A   Clear
3:34 AM 79.7 °F - 69.8 °F 72% 29.92 in 10.0 mi SSW 18.4 mph 27.6 mph N/A   Scattered Clouds
3:54 AM 79.9 °F - 69.4 °F 70% 29.92 in 10.0 mi SSW 16.1 mph 29.9 mph N/A   Scattered Clouds
4:14 AM 79.7 °F - 69.4 °F 71% 29.92 in 10.0 mi SSW 16.1 mph 26.5 mph N/A   Scattered Clouds
4:34 AM 79.3 °F - 69.4 °F 72% 29.92 in 10.0 mi SSW 16.1 mph 26.5 mph N/A   Clear
4:54 AM 79.2 °F - 69.4 °F 72% 29.92 in 10.0 mi SSW 16.1 mph 23.0 mph N/A   Clear
5:14 AM 78.8 °F - 69.4 °F 73% 29.92 in 10.0 mi SSW 13.8 mph 26.5 mph N/A   Clear
5:34 AM 78.6 °F - 69.4 °F 73% 29.92 in 10.0 mi SSW 15.0 mph 25.3 mph N/A   Clear
5:54 AM 78.4 °F - 69.4 °F 74% 29.92 in 10.0 mi SSW 17.3 mph 24.2 mph N/A   Scattered Clouds
6:14 AM 78.3 °F - 69.3 °F 74% 29.92 in 10.0 mi SSW 18.4 mph 27.6 mph N/A   Scattered Clouds
6:34 AM 77.9 °F - 69.3 °F 75% 29.92 in 10.0 mi SSW 16.1 mph 24.2 mph N/A   Clear
6:53 AM 77.9 °F - 69.3 °F 75% 29.92 in 10.0 mi SSW 16.1 mph 25.3 mph N/A   Clear
7:14 AM 77.4 °F - 69.3 °F 76% 29.93 in 10.0 mi SSW 13.8 mph 23.0 mph N/A   Clear
7:34 AM 77.4 °F - 69.3 °F 76% 29.94 in 10.0 mi SSW 13.8 mph 24.2 mph N/A   Clear
7:54 AM 77.9 °F - 69.4 °F 75% 29.94 in 10.0 mi SSW 17.3 mph 31.1 mph N/A   Clear
8:14 AM 78.4 °F - 69.8 °F 75% 29.94 in 10.0 mi SSW 13.8 mph 27.6 mph N/A   Clear
8:34 AM 79.0 °F - 69.8 °F 73% 29.93 in 10.0 mi SSW 17.3 mph 27.6 mph N/A   Clear
8:54 AM 79.9 °F - 69.8 °F 71% 29.93 in 10.0 mi SSW 19.6 mph 26.5 mph N/A   Clear
9:14 AM 81.0 °F 84.4 °F 70.0 °F 69% 29.94 in 10.0 mi SSW 18.4 mph 27.6 mph N/A   Clear
9:34 AM 81.7 °F 85.4 °F 70.0 °F 68% 29.93 in 10.0 mi SW 18.4 mph 25.3 mph N/A   Clear
9:54 AM 82.4 °F 86.3 °F 70.0 °F 66% 29.93 in 10.0 mi SSW 19.6 mph 28.8 mph N/A   Clear
10:14 AM 83.3 °F 87.4 °F 70.2 °F 64% 29.93 in 10.0 mi SSW 15.0 mph 29.9 mph N/A   Clear
10:34 AM 84.2 °F 88.7 °F 70.2 °F 63% 29.94 in 10.0 mi SSW 18.4 mph 25.3 mph N/A   Clear
10:54 AM 85.3 °F 90.1 °F 70.5 °F 61% 29.95 in 10.0 mi SSW 11.5 mph 19.6 mph N/A   Clear
11:14 AM 86.5 °F 91.8 °F 70.7 °F 59% 29.96 in 10.0 mi SSW 12.7 mph 17.3 mph N/A   Clear
11:33 AM 87.1 °F 92.0 °F 70.3 °F 57% 29.96 in 10.0 mi SSW 10.4 mph 19.6 mph N/A   Clear
11:54 AM 88.0 °F 93.4 °F 70.5 °F 56% 29.95 in 10.0 mi SSW 11.5 mph 18.4 mph N/A   Clear
12:14 PM 88.5 °F 94.0 °F 70.7 °F 55% 29.95 in 10.0 mi SSW 15.0 mph 19.6 mph N/A   Clear
12:34 PM 88.3 °F 94.1 °F 70.9 °F 56% 29.95 in 10.0 mi South 12.7 mph 18.4 mph N/A   Clear
12:54 PM 89.1 °F 95.0 °F 70.9 °F 55% 29.94 in 10.0 mi SSW 10.4 mph 16.1 mph N/A   Clear
1:14 PM 89.2 °F 95.4 °F 71.1 °F 55% 29.94 in 10.0 mi SSW 13.8 mph 18.4 mph N/A   Clear
1:34 PM 89.6 °F 95.7 °F 71.1 °F 54% 29.93 in 10.0 mi SW 10.4 mph 19.6 mph N/A   Clear
1:54 PM 90.7 °F 97.9 °F 71.8 °F 54% 29.93 in 10.0 mi South 10.4 mph 16.1 mph N/A   Clear
2:14 PM 91.8 °F 99.1 °F 71.8 °F 52% 29.93 in 10.0 mi South 11.5 mph 16.1 mph N/A   Clear
2:34 PM 91.4 °F 98.4 °F 71.8 °F 52% 29.93 in 10.0 mi South 11.5 mph 18.4 mph N/A   Clear
2:54 PM 92.1 °F 99.4 °F 71.4 °F 51% 29.92 in 10.0 mi South 9.2 mph 19.6 mph N/A   Clear
3:14 PM 92.1 °F 99.4 °F 71.4 °F 51% 29.92 in 10.0 mi SW 8.1 mph 17.3 mph N/A   Clear
3:34 PM 92.5 °F 99.6 °F 71.4 °F 50% 29.92 in 10.0 mi SSW 9.2 mph 17.3 mph N/A   Clear
3:54 PM 93.2 °F 101.1 °F 71.8 °F 50% 29.91 in 10.0 mi South 12.7 mph - N/A   Clear
4:14 PM 93.4 °F 100.9 °F 71.4 °F 49% 29.91 in 10.0 mi South 9.2 mph - N/A   Clear
4:34 PM 92.5 °F 99.0 °F 70.9 °F 49% 29.92 in 10.0 mi SW 11.5 mph 18.4 mph N/A   Clear
4:54 PM 92.7 °F 99.9 °F 71.4 °F 50% 29.92 in 10.0 mi SW 10.4 mph 18.4 mph N/A   Clear
5:14 PM 92.3 °F 99.7 °F 72.0 °F 51% 29.92 in 10.0 mi SSW 10.4 mph 19.6 mph N/A   Clear
5:34 PM 91.9 °F 100.1 °F 72.7 °F 53% 29.93 in 10.0 mi SSW 8.1 mph 17.3 mph N/A   Clear
5:54 PM 91.6 °F 99.9 °F 72.9 °F 54% 29.92 in 10.0 mi SSW 5.8 mph 16.1 mph N/A   Clear
6:14 PM 90.5 °F 99.2 °F 73.6 °F 57% 29.93 in 10.0 mi SSW 6.9 mph - N/A   Clear
6:34 PM 88.5 °F 96.8 °F 73.6 °F 61% 29.93 in 10.0 mi South 4.6 mph - N/A   Clear
6:54 PM 87.8 °F 96.1 °F 73.6 °F 63% 29.93 in 10.0 mi South 4.6 mph - N/A   Clear
7:14 PM 85.6 °F 93.8 °F 74.3 °F 69% 29.92 in 10.0 mi South 5.8 mph - N/A   Clear
7:34 PM 86.0 °F 93.8 °F 73.9 °F 67% 29.92 in 10.0 mi South 6.9 mph - N/A   Clear
7:54 PM 85.3 °F 93.0 °F 74.1 °F 69% 29.92 in 10.0 mi South 3.5 mph - N/A   Clear
8:14 PM 85.1 °F 92.9 °F 74.1 °F 70% 29.92 in 10.0 mi South 3.5 mph - N/A   Clear
8:34 PM 84.2 °F 91.2 °F 73.9 °F 71% 29.93 in 10.0 mi South 5.8 mph - N/A   Clear
8:54 PM 84.2 °F 91.2 °F 73.9 °F 71% 29.94 in 10.0 mi South 4.6 mph - N/A   Clear
9:14 PM 83.1 °F 89.8 °F 74.1 °F 74% 29.94 in 10.0 mi South 5.8 mph - N/A   Clear
9:34 PM 83.5 °F 90.3 °F 74.1 °F 73% 29.94 in 10.0 mi South 8.1 mph - N/A   Clear
9:54 PM 84.7 °F 92.5 °F 74.3 °F 71% 29.94 in 10.0 mi SSW 9.2 mph - N/A   Clear
10:14 PM 84.6 °F 92.1 °F 74.1 °F 71% 29.94 in 10.0 mi SSW 10.4 mph 16.1 mph N/A   Clear
10:34 PM 84.6 °F 91.7 °F 73.9 °F 70% 29.95 in 10.0 mi SSW 10.4 mph 16.1 mph N/A   Clear
10:54 PM 84.6 °F 91.7 °F 73.9 °F 70% 29.95 in 10.0 mi SSW 10.4 mph 17.3 mph N/A   Clear
11:14 PM 84.2 °F 91.2 °F 73.8 °F 71% 29.95 in 10.0 mi SSW 10.4 mph 20.7 mph N/A   Clear
11:34 PM 84.2 °F 90.9 °F 73.6 °F 70% 29.95 in 10.0 mi SW 12.7 mph 21.9 mph N/A   Clear
11:54 PM 84.2 °F 90.9 °F 73.4 °F 70% 29.95 in 10.0 mi SW 13.8 mph 19.6 mph N/A   Clear